createdAt,value
2022-09-21T00:02:15.146Z,99745.81
2022-09-21T00:04:44.394Z,99741.50
2022-09-21T00:07:13.487Z,99746.66
2022-09-21T00:09:45.340Z,99752.66
2022-09-21T00:12:15.100Z,99749.25
2022-09-21T00:14:45.313Z,99750.97
2022-09-21T00:17:14.536Z,99741.53
2022-09-21T00:19:43.721Z,99738.09
2022-09-21T00:22:13.249Z,99735.53
2022-09-21T00:24:49.468Z,99739.81
2022-09-21T00:27:19.100Z,99743.25
2022-09-21T00:29:48.232Z,99739.78
2022-09-21T00:32:24.735Z,99750.06
2022-09-21T00:34:53.896Z,99750.97
2022-09-21T00:37:23.190Z,99750.06
2022-09-21T00:39:54.913Z,99749.22
2022-09-21T00:42:24.481Z,99742.38
2022-09-21T00:44:59.228Z,99738.06
2022-09-21T00:47:32.934Z,99735.53
2022-09-21T00:50:07.094Z,99749.22
2022-09-21T00:52:41.301Z,99743.25
2022-09-21T00:55:17.269Z,99745.78
2022-09-21T00:57:50.762Z,99742.34
2022-09-21T01:00:20.264Z,99738.91
2022-09-21T01:02:49.991Z,99732.91
2022-09-21T01:05:19.480Z,99737.22
2022-09-21T01:07:49.899Z,99745.75
2022-09-21T01:10:27.101Z,99738.91
2022-09-21T01:13:17.949Z,99735.47
2022-09-21T01:15:56.121Z,99725.19
2022-09-21T01:18:36.919Z,99748.34
2022-09-21T01:21:20.798Z,99744.94
2022-09-21T01:24:19.404Z,99740.63
2022-09-21T01:27:35.638Z,99750.06
2022-09-21T01:30:09.524Z,99753.47
2022-09-21T01:32:43.472Z,99742.34
2022-09-21T01:35:18.276Z,99734.63
2022-09-21T01:37:57.217Z,99737.22
2022-09-21T01:40:35.411Z,99738.94
2022-09-21T01:43:13.685Z,99738.06
2022-09-21T01:45:58.006Z,99745.78
2022-09-21T01:48:27.913Z,99744.91
2022-09-21T01:50:59.818Z,99718.28
2022-09-21T01:53:34.581Z,99747.50
2022-09-21T01:56:11.648Z,99738.94
2022-09-21T01:58:47.783Z,99744.97
2022-09-21T02:01:23.109Z,99744.13
2022-09-21T02:03:56.165Z,99745.81
2022-09-21T02:06:27.785Z,99746.66
2022-09-21T02:08:57.723Z,99750.97
2022-09-21T02:11:26.972Z,99746.66
2022-09-21T02:16:39.328Z,99733.75
2022-09-21T02:19:28.866Z,99750.06
2022-09-21T02:22:10.689Z,99753.47
2022-09-21T02:24:44.368Z,99747.44
2022-09-21T02:27:29.955Z,99762.03
2022-09-21T02:30:05.336Z,99756.88
2022-09-21T02:32:50.007Z,99738.88
2022-09-21T02:35:30.059Z,99768.91
2022-09-21T02:38:09.067Z,99756.06
2022-09-21T02:40:43.198Z,99761.22
2022-09-21T02:43:16.603Z,99764.66
2022-09-21T02:45:57.235Z,99764.66
2022-09-21T02:48:38.504Z,99763.78
2022-09-21T02:51:17.568Z,99742.34
2022-09-21T02:53:49.053Z,99758.69
2022-09-21T02:56:18.631Z,99759.53
2022-09-21T02:58:51.468Z,99752.66
2022-09-21T03:01:22.027Z,99744.97
2022-09-21T03:03:53.342Z,99741.53
2022-09-21T03:06:23.251Z,99745.81
2022-09-21T03:08:52.452Z,99746.69
2022-09-21T03:11:22.281Z,99748.41
2022-09-21T03:13:51.358Z,99752.72
2022-09-21T03:16:21.952Z,99750.13
2022-09-21T03:18:53.079Z,99734.69
2022-09-21T03:21:22.324Z,99751.84
2022-09-21T03:23:51.702Z,99747.56
2022-09-21T03:26:26.378Z,99757.00
2022-09-21T03:28:55.725Z,99751.84
2022-09-21T03:31:25.057Z,99738.97
2022-09-21T03:34:01.485Z,99747.53
2022-09-21T03:36:30.806Z,99750.94
2022-09-21T03:38:59.914Z,99755.22
2022-09-21T03:41:29.089Z,99747.47
2022-09-21T03:43:58.253Z,99750.03
2022-09-21T03:46:34.923Z,99752.59
2022-09-21T03:49:11.305Z,99745.69
2022-09-21T03:51:40.858Z,99746.50
2022-09-21T03:54:09.996Z,99733.53
2022-09-21T03:56:39.564Z,99734.34
2022-09-21T03:59:11.898Z,99736.88
2022-09-21T04:01:43.298Z,99732.50
2022-09-21T04:04:16.223Z,99735.06
2022-09-21T04:06:55.687Z,99745.25
2022-09-21T04:09:24.946Z,99748.66
2022-09-21T04:11:54.465Z,99736.50
2022-09-21T04:14:24.527Z,99743.28
2022-09-21T04:16:58.951Z,99750.13
2022-09-21T04:19:30.600Z,99744.94
2022-09-21T04:22:00.013Z,99737.97
2022-09-21T04:24:30.541Z,99741.50
2022-09-21T04:26:59.702Z,99749.19
2022-09-21T04:29:28.892Z,99743.97
2022-09-21T04:31:58.029Z,99740.53
2022-09-21T04:34:27.159Z,99737.09
2022-09-21T04:37:01.023Z,99743.84
2022-09-21T04:39:31.415Z,99745.69
2022-09-21T04:42:00.458Z,99755.19
2022-09-21T04:44:29.887Z,99743.09
2022-09-21T04:46:59.878Z,99742.13
2022-09-21T04:49:29.128Z,99739.56
2022-09-21T04:52:06.687Z,99741.16
2022-09-21T04:54:35.785Z,99749.63
2022-09-21T04:57:10.074Z,99748.66
2022-09-21T04:59:39.245Z,99753.72
2022-09-21T05:02:08.504Z,99770.00
2022-09-21T05:04:37.749Z,99745.75
2022-09-21T05:07:09.060Z,99761.88
2022-09-21T05:09:56.474Z,99753.88
2022-09-21T05:12:25.725Z,99756.38
2022-09-21T05:14:55.658Z,99758.22
2022-09-21T05:17:25.676Z,99762.56
2022-09-21T05:19:55.142Z,99759.97
2022-09-21T05:22:27.146Z,99753.88
2022-09-21T05:24:55.925Z,99767.34
2022-09-21T05:27:25.042Z,99765.66
2022-09-21T05:29:59.913Z,99748.28
2022-09-21T05:32:40.357Z,99750.81
2022-09-21T05:35:18.393Z,99757.72
2022-09-21T05:37:55.593Z,99742.94
2022-09-21T05:40:25.976Z,99753.16
2022-09-21T05:42:56.057Z,99743.31
2022-09-21T05:45:28.420Z,99752.44
2022-09-21T05:48:15.704Z,99750.53
2022-09-21T05:50:56.353Z,99746.91
2022-09-21T05:54:00.378Z,99700.41
2022-09-21T05:56:45.109Z,99750.69
2022-09-21T05:59:40.016Z,99735.66
2022-09-21T06:02:22.430Z,99743.34
2022-09-21T06:04:53.785Z,99735.38
2022-09-21T06:07:22.958Z,99744.84
2022-09-21T06:09:54.022Z,99739.91
2022-09-21T06:12:23.244Z,99739.38
2022-09-21T06:14:52.399Z,99743.09
2022-09-21T06:17:21.564Z,99738.03
2022-09-21T06:19:50.755Z,99737.34
2022-09-21T06:22:19.917Z,99734.94
2022-09-21T06:24:49.010Z,99750.50
2022-09-21T06:27:20.773Z,99746.34
2022-09-21T06:29:49.652Z,99745.31
2022-09-21T06:32:20.782Z,99744.03
2022-09-21T06:34:55.130Z,99751.91
2022-09-21T06:37:24.304Z,99759.75
2022-09-21T06:40:04.115Z,99752.00
2022-09-21T06:42:35.416Z,99756.22
2022-09-21T06:45:12.094Z,99762.00
2022-09-21T06:47:41.190Z,99751.41
2022-09-21T06:50:11.101Z,99758.75
2022-09-21T06:52:41.630Z,99770.22
2022-09-21T06:55:11.897Z,99763.25
2022-09-21T06:57:43.365Z,99761.19
2022-09-21T07:00:14.775Z,99760.66
2022-09-21T07:02:46.360Z,99761.06
2022-09-21T07:05:20.574Z,99758.97
2022-09-21T07:07:53.717Z,99762.34
2022-09-21T07:10:23.137Z,99768.91
2022-09-21T07:12:59.395Z,99756.59
2022-09-21T07:15:29.976Z,99752.03
2022-09-21T07:18:06.329Z,99752.72
2022-09-21T07:20:41.040Z,99761.47
2022-09-21T07:23:14.828Z,99759.06
2022-09-21T07:25:44.435Z,99757.38
2022-09-21T07:28:15.730Z,99750.72
2022-09-21T07:30:45.127Z,99745.91
2022-09-21T07:33:14.234Z,99746.31
2022-09-21T07:35:52.758Z,99756.78
2022-09-21T07:38:22.256Z,99759.13
2022-09-21T07:40:52.088Z,99755.56
2022-09-21T07:43:23.207Z,99755.34
2022-09-21T07:46:01.343Z,99761.88
2022-09-21T07:48:31.026Z,99750.41
2022-09-21T07:51:05.716Z,99757.91
2022-09-21T07:53:35.233Z,99748.09
2022-09-21T07:56:05.482Z,99753.34
2022-09-21T07:58:56.239Z,99758.13
2022-09-21T08:01:25.990Z,99754.19
2022-09-21T08:03:56.859Z,99756.88
2022-09-21T08:06:27.300Z,99758.66
2022-09-21T08:09:01.695Z,99757.81
2022-09-21T08:11:32.751Z,99749.97
2022-09-21T08:14:22.464Z,99743.38
2022-09-21T08:17:00.264Z,99746.59
2022-09-21T08:19:29.566Z,99751.72
2022-09-21T08:21:58.712Z,99750.97
2022-09-21T08:24:28.346Z,99757.59
2022-09-21T08:26:59.444Z,99749.06
2022-09-21T08:29:30.733Z,99755.84
2022-09-21T08:32:00.238Z,99753.47
2022-09-21T08:34:29.544Z,99744.19
2022-09-21T08:36:58.846Z,99741.59
2022-09-21T08:39:28.086Z,99740.28
2022-09-21T08:42:11.420Z,99744.50
2022-09-21T08:44:46.845Z,99729.44
2022-09-21T08:47:20.520Z,99734.97
2022-09-21T08:49:55.738Z,99715.44
2022-09-21T08:52:35.105Z,99715.91
2022-09-21T08:55:17.351Z,99721.94
2022-09-21T08:57:49.831Z,99705.41
2022-09-21T09:00:23.002Z,99718.50
2022-09-21T09:03:29.962Z,99712.41
2022-09-21T09:06:10.108Z,99715.47
2022-09-21T09:09:09.352Z,99705.47
2022-09-21T09:12:00.108Z,99698.69
2022-09-21T09:14:49.092Z,99714.91
2022-09-21T09:17:51.324Z,99699.34
2022-09-21T09:20:21.962Z,99701.41
2022-09-21T09:23:04.394Z,99716.41
2022-09-21T09:25:39.456Z,99708.44
2022-09-21T09:28:22.624Z,99701.72
2022-09-21T09:30:58.704Z,99711.16
2022-09-21T09:33:43.971Z,99692.44
2022-09-21T09:36:14.898Z,99669.75
2022-09-21T09:38:52.152Z,99705.97
2022-09-21T09:41:50.230Z,99676.06
2022-09-21T09:44:39.873Z,99686.09
2022-09-21T09:47:18.606Z,99695.47
2022-09-21T09:50:00.739Z,99686.56
2022-09-21T09:52:31.935Z,99686.84
2022-09-21T09:55:01.605Z,99692.22
2022-09-21T09:57:34.125Z,99696.28
2022-09-21T10:00:14.201Z,99690.81
2022-09-21T10:02:49.644Z,99688.84
2022-09-21T10:05:26.943Z,99664.84
2022-09-21T10:07:56.174Z,99692.00
2022-09-21T10:10:34.035Z,99696.78
2022-09-21T10:13:15.750Z,99687.31
2022-09-21T10:15:50.871Z,99655.75
2022-09-21T10:18:24.055Z,99681.47
2022-09-21T10:21:01.838Z,99673.59
2022-09-21T10:23:32.879Z,99674.97
2022-09-21T10:26:05.077Z,99673.44
2022-09-21T10:28:35.441Z,99658.81
2022-09-21T10:31:19.282Z,99689.28
2022-09-21T10:33:55.001Z,99671.63
2022-09-21T10:36:39.654Z,99663.03
2022-09-21T10:39:23.491Z,99676.78
2022-09-21T10:41:56.049Z,99670.22
2022-09-21T10:44:28.597Z,99683.00
2022-09-21T10:47:00.585Z,99671.78
2022-09-21T10:49:31.082Z,99677.00
2022-09-21T10:52:05.126Z,99650.66
2022-09-21T10:54:35.592Z,99672.72
2022-09-21T10:57:16.512Z,99664.75
2022-09-21T10:59:46.316Z,99670.50
2022-09-21T11:02:43.709Z,99670.19
2022-09-21T11:05:17.740Z,99661.84
2022-09-21T11:07:56.457Z,99644.13
2022-09-21T11:10:38.620Z,99660.56
2022-09-21T11:13:30.857Z,99665.84
2022-09-21T11:16:06.291Z,99674.28
2022-09-21T11:18:47.858Z,99670.66
2022-09-21T11:21:32.129Z,99667.25
2022-09-21T11:24:14.653Z,99669.81
2022-09-21T11:26:51.927Z,99660.31
2022-09-21T11:29:31.308Z,99670.16
2022-09-21T11:32:23.511Z,99663.81
2022-09-21T11:35:20.720Z,99652.69
2022-09-21T11:37:58.854Z,99645.44
2022-09-21T11:40:50.273Z,99647.34
2022-09-21T11:43:32.782Z,99631.00
2022-09-21T11:46:15.405Z,99654.69
2022-09-21T11:48:57.326Z,99631.59
2022-09-21T11:51:41.967Z,99641.19
2022-09-21T11:54:33.940Z,99653.53
2022-09-21T11:57:10.882Z,99647.00
2022-09-21T11:59:59.941Z,99659.63
2022-09-21T12:02:53.246Z,99642.50
2022-09-21T12:05:31.463Z,99649.47
2022-09-21T12:08:35.394Z,99650.00
2022-09-21T12:11:13.634Z,99633.75
2022-09-21T12:13:54.431Z,99650.09
2022-09-21T12:16:30.047Z,99630.50
2022-09-21T12:19:06.744Z,99631.38
2022-09-21T12:21:39.007Z,99644.53
2022-09-21T12:24:16.978Z,99641.13
2022-09-21T12:26:50.289Z,99629.03
2022-09-21T12:29:30.669Z,99630.03
2022-09-21T12:32:05.168Z,99621.47
2022-09-21T12:34:41.614Z,99643.25
2022-09-21T12:37:16.537Z,99645.84
2022-09-21T12:39:51.481Z,99640.63
2022-09-21T12:42:32.598Z,99637.84
2022-09-21T12:45:08.530Z,99637.84
2022-09-21T12:47:49.067Z,99629.09
2022-09-21T12:56:51.303Z,99600.09
2022-09-21T12:59:31.807Z,99606.81
2022-09-21T13:02:15.069Z,99629.34
2022-09-21T13:04:52.989Z,99634.19
2022-09-21T13:07:54.936Z,99608.91
2022-09-21T13:10:40.520Z,99612.34
2022-09-21T13:13:22.328Z,99626.72
2022-09-21T13:15:52.706Z,99632.84
2022-09-21T13:18:35.860Z,99610.25
2022-09-21T13:21:18.803Z,99619.22
2022-09-21T13:23:58.733Z,99619.06
2022-09-21T13:26:38.073Z,99598.34
2022-09-21T13:29:34.439Z,99629.78
2022-09-21T13:32:05.467Z,99620.19
2022-09-21T13:34:36.876Z,99614.06
2022-09-21T13:37:32.486Z,99614.84
2022-09-21T13:40:42.057Z,99630.63
2022-09-21T13:43:46.826Z,99617.84
2022-09-21T13:46:55.636Z,99630.75
2022-09-21T13:49:39.088Z,99630.84
2022-09-21T13:52:34.235Z,99628.25
2022-09-21T13:55:06.734Z,99613.47
2022-09-21T13:57:42.493Z,99614.56
2022-09-21T14:00:39.311Z,99616.41
2022-09-21T14:03:23.745Z,99621.72
2022-09-21T14:05:55.248Z,99616.56
2022-09-21T14:08:33.162Z,99604.72
2022-09-21T14:11:05.890Z,99601.25
2022-09-21T14:13:37.793Z,99620.47
2022-09-21T14:16:47.696Z,99607.50
2022-09-21T14:20:01.539Z,99607.44
2022-09-21T14:22:45.010Z,99624.31
2022-09-21T14:25:50.669Z,99621.84
2022-09-21T14:28:25.820Z,99592.69
2022-09-21T14:31:00.862Z,99616.56
2022-09-21T14:33:41.269Z,99614.16
2022-09-21T14:36:20.365Z,99612.28
2022-09-21T14:38:57.730Z,99629.00
2022-09-21T14:41:30.897Z,99628.34
2022-09-21T14:44:01.027Z,99622.34
2022-09-21T14:46:53.508Z,99622.34
2022-09-21T14:49:52.403Z,99613.63
2022-09-21T14:52:38.025Z,99619.16
2022-09-21T14:55:19.379Z,99617.34
2022-09-21T14:58:13.981Z,99630.53
2022-09-21T15:00:45.800Z,99624.59
2022-09-21T15:03:38.704Z,99636.72
2022-09-21T15:06:30.789Z,99634.53
2022-09-21T15:09:32.153Z,99627.16
2022-09-21T15:12:11.751Z,99631.28
2022-09-21T15:14:50.442Z,99639.16
2022-09-21T15:17:29.499Z,99637.41
2022-09-21T15:20:06.119Z,99635.88
2022-09-21T15:22:44.500Z,99640.25
2022-09-21T15:25:15.870Z,99628.97
2022-09-21T15:27:48.051Z,99641.03
2022-09-21T15:30:25.749Z,99639.31
2022-09-21T15:32:57.371Z,99641.13
2022-09-21T15:35:28.887Z,99638.53
2022-09-21T15:38:00.468Z,99634.84
2022-09-21T15:40:51.943Z,99631.34
2022-09-21T15:43:34.068Z,99645.31
2022-09-21T15:46:05.401Z,99644.50
2022-09-21T15:48:35.976Z,99640.16
2022-09-21T15:51:12.351Z,99646.31
2022-09-21T15:53:50.019Z,99643.66
2022-09-21T15:56:23.008Z,99625.03
2022-09-21T15:59:07.467Z,99663.56
2022-09-21T16:01:44.338Z,99661.22
2022-09-21T16:04:23.235Z,99670.63
2022-09-21T16:07:03.752Z,99669.75
2022-09-21T16:09:42.210Z,99672.47
2022-09-21T16:12:49.222Z,99671.63
2022-09-21T16:15:26.011Z,99672.47
2022-09-21T16:18:01.361Z,99691.66
2022-09-21T16:20:48.248Z,99697.53
2022-09-21T16:23:21.107Z,99695.28
2022-09-21T16:25:56.862Z,99698.81
2022-09-21T16:28:35.965Z,99680.75
2022-09-21T16:31:30.578Z,99689.41
2022-09-21T16:34:21.606Z,99698.19
2022-09-21T16:36:53.472Z,99713.13
2022-09-21T16:39:22.973Z,99712.13
2022-09-21T16:41:59.703Z,99722.00
2022-09-21T16:47:16.549Z,99732.22
2022-09-21T16:49:46.189Z,99735.94
2022-09-21T16:52:16.757Z,99741.50
2022-09-21T16:54:50.932Z,99740.13
2022-09-21T16:57:20.865Z,99757.56
2022-09-21T16:59:50.373Z,99751.94
2022-09-21T17:02:26.727Z,99763.59
2022-09-21T17:04:56.105Z,99750.63
2022-09-21T17:07:25.525Z,99761.28
2022-09-21T17:09:54.630Z,99761.50
2022-09-21T17:12:24.108Z,99765.06
2022-09-21T17:14:59.562Z,99743.50
2022-09-21T17:17:32.619Z,99716.75
2022-09-21T17:20:08.950Z,99727.03
2022-09-21T17:22:38.085Z,99698.09
2022-09-21T17:25:09.709Z,99752.13
2022-09-21T17:27:40.786Z,99723.72
2022-09-21T17:30:17.119Z,99738.38
2022-09-21T17:32:49.720Z,99735.88
2022-09-21T17:35:24.800Z,99743.63
2022-09-21T17:37:54.164Z,99729.94
2022-09-21T17:40:24.943Z,99747.09
2022-09-21T17:43:11.557Z,99732.41
2022-09-21T17:45:46.292Z,99728.97
2022-09-21T17:48:21.958Z,99747.69
2022-09-21T17:50:57.983Z,99750.19
2022-09-21T17:53:36.940Z,99752.69
2022-09-21T17:56:32.722Z,99740.44
2022-09-21T17:59:04.562Z,99730.09
2022-09-21T18:01:35.613Z,99729.06
2022-09-21T18:04:08.462Z,99732.75
2022-09-21T18:06:38.745Z,99744.97
2022-09-21T18:11:57.798Z,99725.03
2022-09-21T18:14:36.344Z,99720.69
2022-09-21T18:17:21.697Z,99706.88
2022-09-21T18:20:06.789Z,99733.50
2022-09-21T18:22:46.377Z,99715.34
2022-09-21T18:25:18.572Z,99716.19
2022-09-21T18:27:57.056Z,99724.84
2022-09-21T18:30:26.533Z,99736.78
2022-09-21T18:33:10.206Z,99725.59
2022-09-21T18:35:57.334Z,99719.53
2022-09-21T18:38:36.615Z,99721.19
2022-09-21T18:41:14.107Z,99698.94
2022-09-21T18:44:03.186Z,99726.41
2022-09-21T18:46:42.148Z,99713.44
2022-09-21T18:49:18.743Z,99707.34
2022-09-21T18:51:56.675Z,99698.75
2022-09-21T18:54:27.662Z,99719.44
2022-09-21T18:56:58.398Z,99719.41
2022-09-21T18:59:33.327Z,99731.50
2022-09-21T19:02:03.470Z,99734.06
2022-09-21T19:04:33.365Z,99737.59
2022-09-21T19:07:16.022Z,99736.88
2022-09-21T19:09:55.205Z,99748.75
2022-09-21T19:12:54.841Z,99722.22
2022-09-21T19:15:59.826Z,99744.44
2022-09-21T19:18:43.464Z,99738.28
2022-09-21T19:21:23.735Z,99738.34
2022-09-21T19:24:11.420Z,99735.09
2022-09-21T19:26:53.018Z,99749.63
2022-09-21T19:29:35.010Z,99751.44
2022-09-21T19:32:03.900Z,99747.03
2022-09-21T19:34:38.436Z,99747.25
2022-09-21T19:37:08.482Z,99740.44
2022-09-21T19:39:42.138Z,99741.31
2022-09-21T19:42:27.860Z,99742.03
2022-09-21T19:45:16.887Z,99732.53
2022-09-21T19:47:54.460Z,99737.75
2022-09-21T19:50:28.129Z,99738.69
2022-09-21T19:53:22.973Z,99736.09
2022-09-21T19:56:07.681Z,99739.56
2022-09-21T19:58:50.599Z,99738.66
2022-09-21T20:04:09.472Z,99725.75
2022-09-21T20:06:44.110Z,99735.25
2022-09-21T20:09:16.828Z,99723.31
2022-09-21T20:11:54.173Z,99742.13
2022-09-21T20:14:36.601Z,99742.94
2022-09-21T20:17:10.358Z,99739.53
2022-09-21T20:19:45.969Z,99725.75
2022-09-21T20:22:17.292Z,99727.56
2022-09-21T20:24:56.465Z,99722.34
2022-09-21T20:27:34.421Z,99733.53
2022-09-21T20:30:04.173Z,99728.53
2022-09-21T20:32:34.929Z,99733.72
2022-09-21T20:35:04.130Z,99730.22
2022-09-21T20:37:33.156Z,99712.97
2022-09-21T20:40:02.808Z,99705.31
2022-09-21T20:42:37.910Z,99713.81
2022-09-21T20:45:09.807Z,99708.66
2022-09-21T20:47:51.222Z,99670.75
2022-09-21T20:50:21.122Z,99713.78
2022-09-21T20:52:50.503Z,99698.25
2022-09-21T20:55:20.825Z,99696.47
2022-09-21T20:57:57.620Z,99690.53
2022-09-21T21:00:27.665Z,99706.91
2022-09-21T21:02:58.673Z,99697.50
2022-09-21T21:05:28.566Z,99681.34
2022-09-21T21:07:58.107Z,99709.53
2022-09-21T21:10:27.891Z,99693.16
2022-09-21T21:12:59.948Z,99700.91
2022-09-21T21:15:29.814Z,99679.66
2022-09-21T21:17:58.930Z,99695.06
2022-09-21T21:20:28.630Z,99695.91
2022-09-21T21:22:57.741Z,99678.66
2022-09-21T21:25:26.879Z,99686.31
2022-09-21T21:27:58.966Z,99700.16
2022-09-21T21:30:30.719Z,99669.94
2022-09-21T21:33:05.126Z,99707.00
2022-09-21T21:35:35.788Z,99704.44
2022-09-21T21:38:05.075Z,99707.00
2022-09-21T21:43:19.177Z,99699.22
2022-09-21T21:46:01.469Z,99696.56
2022-09-21T21:48:31.647Z,99706.97
2022-09-21T21:51:01.910Z,99715.59
2022-09-21T21:53:34.220Z,99668.41
2022-09-21T21:56:05.235Z,99695.75
2022-09-21T21:58:34.972Z,99706.03
2022-09-21T22:01:14.678Z,99697.47
2022-09-21T22:03:43.937Z,99694.91
2022-09-21T22:06:13.974Z,99717.25
2022-09-21T22:08:44.554Z,99718.16
2022-09-21T22:11:14.391Z,99711.16
2022-09-21T22:13:43.432Z,99702.63
2022-09-21T22:18:52.188Z,99690.75
2022-09-21T22:21:23.323Z,99690.59
2022-09-21T22:23:59.878Z,99691.50
2022-09-21T22:26:30.664Z,99699.31
2022-09-21T22:29:04.358Z,99695.06
2022-09-21T22:31:37.954Z,99705.31
2022-09-21T22:34:08.624Z,99665.88
2022-09-21T22:36:45.199Z,99701.03
2022-09-21T22:39:15.245Z,99685.66
2022-09-21T22:41:45.184Z,99703.69
2022-09-21T22:44:14.398Z,99701.88
2022-09-21T22:46:45.460Z,99699.28
2022-09-21T22:49:14.627Z,99700.16
2022-09-21T22:51:43.660Z,99707.00
2022-09-21T22:54:12.822Z,99707.94
2022-09-21T22:59:16.402Z,99707.94
2022-09-21T23:01:47.476Z,99697.59
2022-09-21T23:04:16.702Z,99710.53
2022-09-21T23:06:51.713Z,99696.66
2022-09-21T23:09:22.413Z,99704.41
2022-09-21T23:11:53.363Z,99708.75
2022-09-21T23:14:24.302Z,99703.53
2022-09-21T23:16:55.393Z,99687.97
2022-09-21T23:19:24.617Z,99694.03
2022-09-21T23:21:54.539Z,99709.59
2022-09-21T23:24:23.721Z,99706.13
2022-09-21T23:26:52.980Z,99713.09
2022-09-21T23:29:22.151Z,99694.94
2022-09-21T23:31:56.363Z,99675.09
2022-09-21T23:34:27.576Z,99675.94
2022-09-21T23:36:56.822Z,99683.72
2022-09-21T23:39:25.861Z,99682.03
2022-09-21T23:41:55.049Z,99675.13
2022-09-21T23:44:24.168Z,99649.44
2022-09-21T23:46:53.408Z,99652.13
2022-09-21T23:49:22.574Z,99670.09
2022-09-21T23:54:38.983Z,99695.03
2022-09-21T23:57:08.263Z,99694.19
2022-09-21T23:59:37.490Z,99683.06
